Time;durP1;ratioP1;P1;durP2;ratioP2;P2;SDS_P1;SDS_P2;PMS_P1;PMS_P2;Temp;Humidity;BMP_temperature;BMP_pressure;BME280_temperature;BME280_humidity;BME280_pressure;Samples;Min_cycle;Max_cycle;Signal;HPM_P1;HPM_P2
2022/10/25 00:00:12;;;;;;;24.38;8.20;;;;;;;;;;4983851;28;20534;-69
2022/10/25 00:02:38;;;;;;;24.95;9.35;;;;;;;;;;4984872;28;20053;-69
2022/10/25 00:05:05;;;;;;;20.42;9.77;;;;;;;;;;4983318;28;20045;-69
2022/10/25 00:07:31;;;;;;;25.08;10.57;;;;;;;;;;4985107;28;20050;-69
2022/10/25 00:09:56;;;;;;;23.23;9.98;;;;;;;;;;4982538;28;20081;-69
2022/10/25 00:12:23;;;;;;;25.85;9.48;;;;;;;;;;4983832;28;20644;-69
2022/10/25 00:14:49;;;;;;;29.55;10.10;;;;;;;;;;4984730;28;20070;-69
2022/10/25 00:17:15;;;;;;;23.67;9.25;;;;;;;;;;4982981;28;20034;-70
2022/10/25 00:19:41;;;;;;;34.50;11.40;;;;;;;;;;4979011;28;20053;-69
2022/10/25 00:22:07;;;;;;;28.15;9.70;;;;;;;;;;4980535;28;20477;-71
2022/10/25 00:24:33;;;;;;;22.33;9.73;;;;;;;;;;4984094;28;20054;-69
2022/10/25 00:26:59;;;;;;;21.40;9.93;;;;;;;;;;4983233;28;20033;-69
2022/10/25 00:29:25;;;;;;;25.83;10.07;;;;;;;;;;4986721;28;20034;-71
2022/10/25 00:31:51;;;;;;;27.35;11.18;;;;;;;;;;4967658;28;20089;-69
2022/10/25 00:34:17;;;;;;;24.38;10.48;;;;;;;;;;4980643;28;20031;-69
2022/10/25 00:36:43;;;;;;;24.63;11.00;;;;;;;;;;4983372;28;20023;-69
2022/10/25 00:39:09;;;;;;;23.13;11.20;;;;;;;;;;4967528;28;20060;-69
2022/10/25 00:41:35;;;;;;;28.52;11.90;;;;;;;;;;4968317;28;20161;-70
2022/10/25 00:44:20;;;;;;;23.67;12.90;;;;;;;;;;4985951;28;20070;-71
2022/10/25 00:46:45;;;;;;;28.35;12.05;;;;;;;;;;4982510;28;20034;-69
2022/10/25 00:49:18;;;;;;;32.83;11.20;;;;;;;;;;4984832;28;20045;-68
2022/10/25 00:51:44;;;;;;;28.15;12.75;;;;;;;;;;4982680;28;20093;-68
2022/10/25 00:54:12;;;;;;;26.80;11.63;;;;;;;;;;4985364;28;20034;-69
2022/10/25 00:56:40;;;;;;;26.45;11.55;;;;;;;;;;4982722;28;20611;-69
2022/10/25 00:59:07;;;;;;;37.35;13.63;;;;;;;;;;4988492;28;20052;-70
2022/10/25 01:01:33;;;;;;;29.67;12.00;;;;;;;;;;4987193;28;20394;-69
2022/10/25 01:04:18;;;;;;;29.75;11.52;;;;;;;;;;4991656;28;20030;-69
2022/10/25 01:06:49;;;;;;;32.58;11.00;;;;;;;;;;4988966;28;20041;-68
2022/10/25 01:09:18;;;;;;;31.80;11.18;;;;;;;;;;4987701;28;20026;-69
2022/10/25 01:11:44;;;;;;;24.92;9.85;;;;;;;;;;4971547;28;20026;-69
2022/10/25 01:14:11;;;;;;;34.13;10.63;;;;;;;;;;4973584;28;20168;-69
2022/10/25 01:16:43;;;;;;;27.48;10.02;;;;;;;;;;4984940;28;20054;-69
2022/10/25 01:19:18;;;;;;;33.20;10.32;;;;;;;;;;4986892;28;20023;-70
2022/10/25 01:21:49;;;;;;;25.65;9.85;;;;;;;;;;4987705;28;20112;-68
2022/10/25 01:24:15;;;;;;;28.77;9.48;;;;;;;;;;4985179;28;20129;-69
2022/10/25 01:26:52;;;;;;;33.25;9.90;;;;;;;;;;4989171;28;20098;-70
2022/10/25 01:29:28;;;;;;;23.80;8.05;;;;;;;;;;4988257;28;20073;-69
2022/10/25 01:31:57;;;;;;;30.17;8.13;;;;;;;;;;4988060;28;20274;-70
2022/10/25 01:34:26;;;;;;;25.35;7.85;;;;;;;;;;4986815;28;20027;-68
2022/10/25 01:37:01;;;;;;;30.13;7.68;;;;;;;;;;4988566;28;20508;-68
2022/10/25 01:39:34;;;;;;;31.98;7.85;;;;;;;;;;4987823;28;20100;-71
2022/10/25 01:42:05;;;;;;;25.90;7.50;;;;;;;;;;4985940;28;20153;-68
2022/10/25 01:44:37;;;;;;;33.67;7.60;;;;;;;;;;4992374;28;20037;-69
2022/10/25 01:47:06;;;;;;;26.02;6.47;;;;;;;;;;4989925;28;20505;-68
2022/10/25 01:49:45;;;;;;;23.33;7.00;;;;;;;;;;4990051;28;20034;-68
2022/10/25 01:52:11;;;;;;;30.52;5.93;;;;;;;;;;4986122;28;20100;-68
2022/10/25 01:54:37;;;;;;;26.15;6.57;;;;;;;;;;4987234;28;20068;-68
2022/10/25 01:57:12;;;;;;;25.55;6.55;;;;;;;;;;4989089;28;20062;-68
2022/10/25 01:59:42;;;;;;;34.25;6.13;;;;;;;;;;4984111;28;20023;-69
2022/10/25 02:02:30;;;;;;;26.33;6.32;;;;;;;;;;4987659;28;20026;-69
2022/10/25 02:05:03;;;;;;;32.38;6.40;;;;;;;;;;4989756;28;20117;-69
2022/10/25 02:07:42;;;;;;;28.25;6.68;;;;;;;;;;4985351;28;20034;-68
2022/10/25 02:10:19;;;;;;;38.80;6.38;;;;;;;;;;4990587;28;20030;-69
2022/10/25 02:13:17;;;;;;;41.22;8.30;;;;;;;;;;4989299;28;20113;-69
2022/10/25 02:15:53;;;;;;;35.38;6.68;;;;;;;;;;4938840;28;20050;-69
2022/10/25 02:18:22;;;;;;;30.05;7.50;;;;;;;;;;4972749;28;20469;-70
2022/10/25 02:20:49;;;;;;;29.75;7.65;;;;;;;;;;4987909;28;20050;-69
2022/10/25 02:23:17;;;;;;;33.13;8.63;;;;;;;;;;4988306;28;20030;-69
2022/10/25 02:25:43;;;;;;;41.42;8.18;;;;;;;;;;4989135;28;20026;-69
2022/10/25 02:28:10;;;;;;;34.20;6.75;;;;;;;;;;4986599;28;20050;-69
2022/10/25 02:30:36;;;;;;;29.80;8.02;;;;;;;;;;4970969;28;20029;-69
2022/10/25 02:33:03;;;;;;;37.33;9.40;;;;;;;;;;4969030;28;20038;-69
2022/10/25 02:35:29;;;;;;;39.60;8.95;;;;;;;;;;4984912;28;20069;-69
2022/10/25 02:37:55;;;;;;;33.90;8.60;;;;;;;;;;4968308;28;20489;-69
2022/10/25 02:40:21;;;;;;;38.70;8.60;;;;;;;;;;4986628;28;20034;-69
2022/10/25 02:42:47;;;;;;;34.47;9.07;;;;;;;;;;4984704;28;20037;-69
2022/10/25 02:45:13;;;;;;;51.15;11.02;;;;;;;;;;4980156;28;20035;-68
2022/10/25 02:47:39;;;;;;;34.25;8.90;;;;;;;;;;4983335;28;20134;-69
2022/10/25 02:50:05;;;;;;;32.13;7.90;;;;;;;;;;4984369;28;20529;-70
2022/10/25 02:52:31;;;;;;;41.72;9.38;;;;;;;;;;4983104;28;20030;-69
2022/10/25 02:54:57;;;;;;;37.78;8.23;;;;;;;;;;4953010;28;20538;-68
2022/10/25 02:57:23;;;;;;;38.45;8.05;;;;;;;;;;4980973;28;20070;-70
2022/10/25 02:59:49;;;;;;;43.83;7.65;;;;;;;;;;4984954;28;20019;-68
2022/10/25 03:02:15;;;;;;;31.40;6.70;;;;;;;;;;4986076;28;20053;-68
2022/10/25 03:04:41;;;;;;;31.13;7.05;;;;;;;;;;4980774;28;20053;-68
2022/10/25 03:07:07;;;;;;;29.23;6.32;;;;;;;;;;4965303;28;20066;-68
2022/10/25 03:09:33;;;;;;;33.50;6.15;;;;;;;;;;4985882;28;20030;-68
2022/10/25 03:11:59;;;;;;;39.90;6.30;;;;;;;;;;4984852;28;20061;-69
2022/10/25 03:14:25;;;;;;;34.47;6.95;;;;;;;;;;4966303;28;20097;-68
2022/10/25 03:16:51;;;;;;;31.13;6.47;;;;;;;;;;4978258;28;20437;-70
2022/10/25 03:19:17;;;;;;;28.85;5.80;;;;;;;;;;4982336;28;20026;-68
2022/10/25 03:21:43;;;;;;;32.88;6.57;;;;;;;;;;4981101;28;20042;-68
2022/10/25 03:24:09;;;;;;;35.03;6.82;;;;;;;;;;4983115;28;20038;-68
2022/10/25 03:26:35;;;;;;;39.38;6.75;;;;;;;;;;4981849;28;20026;-68
2022/10/25 03:29:01;;;;;;;40.75;7.22;;;;;;;;;;4988370;28;20033;-68
2022/10/25 03:31:27;;;;;;;29.65;5.82;;;;;;;;;;4966367;28;20057;-68
2022/10/25 03:33:53;;;;;;;32.72;5.50;;;;;;;;;;4979609;28;20078;-69
2022/10/25 03:36:19;;;;;;;37.67;6.13;;;;;;;;;;4982602;28;20043;-68
2022/10/25 03:38:45;;;;;;;34.42;5.35;;;;;;;;;;4985384;28;20507;-68
2022/10/25 03:41:11;;;;;;;30.98;5.80;;;;;;;;;;4982083;28;20030;-68
2022/10/25 03:43:37;;;;;;;35.38;6.22;;;;;;;;;;4985584;28;20053;-68
2022/10/25 03:46:03;;;;;;;36.17;6.20;;;;;;;;;;4982536;28;20031;-68
2022/10/25 03:48:29;;;;;;;33.78;6.65;;;;;;;;;;4984087;28;20034;-69
2022/10/25 03:50:55;;;;;;;36.10;5.55;;;;;;;;;;4985767;28;20034;-68
2022/10/25 03:53:21;;;;;;;37.88;6.22;;;;;;;;;;4986040;28;20406;-69
2022/10/25 03:55:48;;;;;;;36.08;5.80;;;;;;;;;;4983858;28;20030;-69
2022/10/25 03:58:14;;;;;;;35.15;6.97;;;;;;;;;;4979044;28;20070;-69
2022/10/25 04:00:40;;;;;;;35.50;6.65;;;;;;;;;;4983073;28;20089;-68
2022/10/25 04:03:06;;;;;;;37.10;6.13;;;;;;;;;;4968754;28;21718;-68
2022/10/25 04:05:32;;;;;;;36.92;6.85;;;;;;;;;;4981005;28;20043;-69
2022/10/25 04:07:59;;;;;;;32.72;7.07;;;;;;;;;;4983533;28;20037;-69
2022/10/25 04:10:25;;;;;;;29.85;6.93;;;;;;;;;;4980186;28;20035;-70
2022/10/25 04:12:51;;;;;;;44.90;7.10;;;;;;;;;;4983040;28;20031;-69
2022/10/25 04:15:17;;;;;;;41.65;7.95;;;;;;;;;;4985614;28;20053;-70
2022/10/25 04:17:43;;;;;;;41.30;9.05;;;;;;;;;;4969397;28;20478;-69
2022/10/25 04:20:10;;;;;;;37.22;8.02;;;;;;;;;;4981783;28;20037;-70
2022/10/25 04:22:36;;;;;;;39.22;8.32;;;;;;;;;;4982276;28;20030;-69
2022/10/25 04:25:02;;;;;;;49.90;9.43;;;;;;;;;;4966962;28;20038;-69
2022/10/25 04:27:27;;;;;;;35.78;8.60;;;;;;;;;;4969224;28;20534;-70
2022/10/25 04:29:53;;;;;;;46.22;8.95;;;;;;;;;;4987489;28;20034;-70
2022/10/25 04:32:19;;;;;;;31.33;7.95;;;;;;;;;;4984689;28;20031;-70
2022/10/25 04:34:45;;;;;;;34.85;7.32;;;;;;;;;;4983653;28;20053;-71
2022/10/25 04:37:11;;;;;;;38.78;9.00;;;;;;;;;;4955130;28;20136;-71
2022/10/25 04:39:38;;;;;;;44.22;8.25;;;;;;;;;;4987996;28;20411;-71
2022/10/25 04:42:04;;;;;;;45.35;9.32;;;;;;;;;;4982316;28;20036;-68
2022/10/25 04:44:30;;;;;;;36.25;8.30;;;;;;;;;;4989984;28;20030;-70
2022/10/25 04:46:56;;;;;;;43.25;8.90;;;;;;;;;;4986721;28;20461;-71
2022/10/25 04:49:22;;;;;;;41.45;8.82;;;;;;;;;;4970535;28;20040;-70
2022/10/25 04:51:47;;;;;;;46.45;9.13;;;;;;;;;;4989583;28;20045;-70
2022/10/25 04:54:14;;;;;;;46.20;8.80;;;;;;;;;;4972746;28;20034;-70
2022/10/25 04:56:40;;;;;;;39.72;8.85;;;;;;;;;;4989635;28;20084;-71
2022/10/25 04:59:06;;;;;;;42.67;10.35;;;;;;;;;;4985230;28;20034;-70
2022/10/25 05:01:32;;;;;;;42.67;10.48;;;;;;;;;;4988598;28;20041;-70
2022/10/25 05:03:58;;;;;;;42.70;10.05;;;;;;;;;;4987629;28;20023;-70
2022/10/25 05:06:25;;;;;;;38.30;9.65;;;;;;;;;;4986407;28;20045;-71
2022/10/25 05:08:52;;;;;;;41.75;10.73;;;;;;;;;;4988279;28;20066;-70
2022/10/25 05:11:19;;;;;;;46.20;10.02;;;;;;;;;;4966727;28;20034;-70
2022/10/25 05:13:45;;;;;;;46.10;10.55;;;;;;;;;;4985006;28;20552;-70
2022/10/25 05:16:15;;;;;;;44.83;12.38;;;;;;;;;;4987782;28;20031;-69
2022/10/25 05:18:41;;;;;;;37.33;11.73;;;;;;;;;;4988392;28;20478;-70
2022/10/25 05:21:09;;;;;;;41.08;12.20;;;;;;;;;;4985472;28;20045;-70
2022/10/25 05:23:35;;;;;;;36.45;13.38;;;;;;;;;;4989103;28;20092;-70
2022/10/25 05:26:01;;;;;;;48.67;13.27;;;;;;;;;;4988649;28;20045;-70
2022/10/25 05:28:27;;;;;;;45.10;12.52;;;;;;;;;;4985070;28;20030;-70
2022/10/25 05:30:53;;;;;;;40.97;12.25;;;;;;;;;;4983217;28;20046;-70
2022/10/25 05:33:19;;;;;;;46.17;13.02;;;;;;;;;;4982691;28;20501;-69
2022/10/25 05:35:45;;;;;;;42.13;13.88;;;;;;;;;;4988706;28;20035;-70
2022/10/25 05:38:11;;;;;;;44.33;14.40;;;;;;;;;;4986963;28;20038;-70
2022/10/25 05:40:37;;;;;;;45.88;14.15;;;;;;;;;;4985819;28;20042;-69
2022/10/25 05:43:03;;;;;;;48.65;16.05;;;;;;;;;;4988621;28;20030;-70
2022/10/25 05:45:29;;;;;;;48.90;14.55;;;;;;;;;;4985020;28;20049;-69
2022/10/25 05:47:55;;;;;;;46.40;15.77;;;;;;;;;;4985388;28;20101;-70
2022/10/25 05:50:21;;;;;;;45.72;15.88;;;;;;;;;;4989016;28;20129;-70
2022/10/25 05:52:47;;;;;;;42.58;15.07;;;;;;;;;;4982861;28;20050;-69
2022/10/25 05:55:13;;;;;;;44.22;16.77;;;;;;;;;;4983491;28;20034;-69
2022/10/25 05:57:39;;;;;;;40.22;13.85;;;;;;;;;;4967461;28;20046;-69
2022/10/25 06:00:06;;;;;;;44.05;16.00;;;;;;;;;;4983563;28;20493;-70
2022/10/25 06:02:32;;;;;;;36.67;14.82;;;;;;;;;;4990198;28;20042;-69
2022/10/25 06:04:58;;;;;;;38.17;15.50;;;;;;;;;;4980651;28;20109;-70
2022/10/25 06:07:24;;;;;;;35.97;13.65;;;;;;;;;;4985317;28;20157;-69
2022/10/25 06:09:50;;;;;;;33.00;12.73;;;;;;;;;;4984116;28;20058;-70
2022/10/25 06:12:16;;;;;;;36.17;12.68;;;;;;;;;;4954568;28;20133;-70
2022/10/25 06:14:42;;;;;;;43.13;14.60;;;;;;;;;;4984383;28;20509;-70
2022/10/25 06:17:08;;;;;;;35.53;13.80;;;;;;;;;;4984900;28;20037;-69
2022/10/25 06:19:34;;;;;;;32.90;13.43;;;;;;;;;;4986649;28;20022;-69
2022/10/25 06:22:00;;;;;;;38.83;13.30;;;;;;;;;;4984592;28;20038;-69
2022/10/25 06:24:26;;;;;;;35.78;13.68;;;;;;;;;;4980513;28;20881;-69
2022/10/25 06:26:52;;;;;;;38.30;13.70;;;;;;;;;;4984801;28;20058;-70
2022/10/25 06:29:18;;;;;;;27.77;12.57;;;;;;;;;;4971521;28;20125;-70
2022/10/25 06:31:44;;;;;;;47.00;16.20;;;;;;;;;;4985760;28;20039;-70
2022/10/25 06:34:10;;;;;;;37.10;14.27;;;;;;;;;;4987049;28;20042;-71
2022/10/25 06:36:36;;;;;;;34.20;15.20;;;;;;;;;;4986489;28;20125;-70
2022/10/25 06:39:02;;;;;;;40.47;14.82;;;;;;;;;;4962863;28;20528;-70
2022/10/25 06:41:30;;;;;;;36.00;15.25;;;;;;;;;;4970181;28;20037;-70
2022/10/25 06:43:58;;;;;;;43.85;15.68;;;;;;;;;;4983037;28;20142;-69
2022/10/25 06:46:25;;;;;;;38.55;14.30;;;;;;;;;;4982021;28;20511;-70
2022/10/25 06:48:52;;;;;;;33.25;14.55;;;;;;;;;;4986258;28;20041;-70
2022/10/25 06:51:19;;;;;;;28.73;13.88;;;;;;;;;;4981554;28;20034;-69
2022/10/25 06:53:44;;;;;;;36.20;15.38;;;;;;;;;;4981763;28;20042;-69
2022/10/25 06:56:12;;;;;;;34.80;15.55;;;;;;;;;;4981930;28;20128;-69
2022/10/25 06:58:38;;;;;;;31.35;14.48;;;;;;;;;;4985068;28;20059;-69
2022/10/25 07:01:09;;;;;;;45.33;13.77;;;;;;;;;;4983821;28;20034;-69
2022/10/25 07:03:35;;;;;;;27.48;14.15;;;;;;;;;;4978884;28;20056;-69
2022/10/25 07:06:04;;;;;;;34.05;14.70;;;;;;;;;;4978364;28;20050;-69
2022/10/25 07:08:30;;;;;;;36.65;14.52;;;;;;;;;;4981287;28;20089;-69
2022/10/25 07:10:56;;;;;;;32.80;14.00;;;;;;;;;;4980621;28;20497;-69
2022/10/25 07:13:22;;;;;;;34.03;13.77;;;;;;;;;;4981503;28;20026;-69
2022/10/25 07:15:48;;;;;;;28.90;14.77;;;;;;;;;;4966095;28;20042;-69
2022/10/25 07:18:14;;;;;;;27.00;14.48;;;;;;;;;;4980865;28;20041;-69
2022/10/25 07:20:45;;;;;;;33.53;14.98;;;;;;;;;;4980848;28;20038;-69
2022/10/25 07:23:12;;;;;;;38.17;15.32;;;;;;;;;;4965131;28;20104;-70
2022/10/25 07:25:38;;;;;;;36.30;15.35;;;;;;;;;;4984702;28;20561;-69
2022/10/25 07:28:04;;;;;;;43.13;15.55;;;;;;;;;;4980823;28;20149;-69
2022/10/25 07:30:31;;;;;;;32.65;15.05;;;;;;;;;;4980541;28;20042;-69
2022/10/25 07:32:57;;;;;;;41.28;16.38;;;;;;;;;;4985820;28;20528;-69
2022/10/25 07:35:23;;;;;;;33.13;15.48;;;;;;;;;;4982437;28;20050;-69
2022/10/25 07:37:49;;;;;;;33.25;16.40;;;;;;;;;;4980308;28;20070;-69
2022/10/25 07:40:15;;;;;;;30.52;16.50;;;;;;;;;;4969080;28;20034;-68
2022/10/25 07:42:41;;;;;;;29.75;15.05;;;;;;;;;;4985042;28;20036;-68
2022/10/25 07:45:07;;;;;;;28.75;15.40;;;;;;;;;;4981607;28;20039;-69
2022/10/25 07:47:33;;;;;;;30.92;14.52;;;;;;;;;;4980133;28;20129;-69
2022/10/25 07:49:59;;;;;;;34.33;14.90;;;;;;;;;;4966021;28;20169;-70
2022/10/25 07:52:25;;;;;;;32.83;16.02;;;;;;;;;;4985355;28;20025;-69
2022/10/25 07:54:51;;;;;;;31.67;15.48;;;;;;;;;;4980681;28;20481;-69
2022/10/25 07:57:17;;;;;;;28.15;15.77;;;;;;;;;;4967052;28;20047;-69
2022/10/25 07:59:43;;;;;;;32.30;15.95;;;;;;;;;;4955958;28;20042;-69
2022/10/25 08:02:11;;;;;;;27.20;16.05;;;;;;;;;;4980635;28;20042;-69
2022/10/25 08:04:37;;;;;;;23.02;14.30;;;;;;;;;;4983264;28;20153;-69
2022/10/25 08:07:03;;;;;;;27.02;15.43;;;;;;;;;;4987943;28;20034;-70
2022/10/25 08:09:29;;;;;;;35.72;16.17;;;;;;;;;;4989282;28;20579;-70
2022/10/25 08:11:55;;;;;;;34.22;17.55;;;;;;;;;;4993398;28;20034;-69
2022/10/25 08:14:21;;;;;;;34.40;17.90;;;;;;;;;;4992710;28;20031;-69
2022/10/25 08:16:47;;;;;;;35.10;16.63;;;;;;;;;;4989521;28;20177;-69
2022/10/25 08:19:13;;;;;;;33.25;16.85;;;;;;;;;;4966726;28;20122;-69
2022/10/25 08:21:39;;;;;;;31.88;16.52;;;;;;;;;;4993267;28;20045;-70
2022/10/25 08:24:05;;;;;;;27.55;15.32;;;;;;;;;;4958818;28;20035;-69
2022/10/25 08:26:31;;;;;;;24.58;14.93;;;;;;;;;;4993371;28;20031;-69
2022/10/25 08:28:57;;;;;;;31.20;15.65;;;;;;;;;;4992078;28;20097;-69
2022/10/25 08:31:23;;;;;;;28.08;14.98;;;;;;;;;;4989906;28;20042;-69
2022/10/25 08:33:49;;;;;;;21.35;14.05;;;;;;;;;;4992840;28;20046;-69
2022/10/25 08:36:15;;;;;;;25.15;13.30;;;;;;;;;;4975850;28;20089;-71
2022/10/25 08:38:41;;;;;;;22.55;13.02;;;;;;;;;;4991258;28;20037;-68
2022/10/25 08:41:10;;;;;;;22.77;12.23;;;;;;;;;;4988826;28;20267;-68
2022/10/25 08:43:55;;;;;;;26.48;12.18;;;;;;;;;;4993540;28;20036;-69
2022/10/25 08:46:23;;;;;;;24.58;12.18;;;;;;;;;;4978510;28;20401;-69
2022/10/25 08:48:53;;;;;;;24.13;13.02;;;;;;;;;;4993094;28;20038;-69
2022/10/25 08:51:29;;;;;;;28.73;11.90;;;;;;;;;;4991219;28;20089;-68
2022/10/25 08:53:57;;;;;;;25.67;12.70;;;;;;;;;;4991564;28;20511;-68
2022/10/25 08:56:24;;;;;;;22.52;11.50;;;;;;;;;;4979332;28;20124;-69
2022/10/25 08:58:53;;;;;;;23.58;11.85;;;;;;;;;;4992389;28;20058;-70
2022/10/25 09:01:26;;;;;;;24.58;12.10;;;;;;;;;;4990155;28;20033;-68
2022/10/25 09:03:52;;;;;;;23.27;12.35;;;;;;;;;;4993030;28;20033;-68
2022/10/25 09:06:24;;;;;;;28.58;13.00;;;;;;;;;;4974593;28;20473;-68
2022/10/25 09:09:09;;;;;;;26.40;12.52;;;;;;;;;;4991610;28;20054;-70
2022/10/25 09:11:46;;;;;;;23.92;13.02;;;;;;;;;;4991764;28;20114;-68
2022/10/25 09:14:17;;;;;;;21.50;11.82;;;;;;;;;;4992701;28;20100;-68
2022/10/25 09:16:53;;;;;;;23.25;12.35;;;;;;;;;;4976159;28;20497;-68
2022/10/25 09:19:32;;;;;;;26.35;11.93;;;;;;;;;;4993484;28;20022;-68
2022/10/25 09:22:02;;;;;;;21.30;11.95;;;;;;;;;;4989105;28;20482;-68
2022/10/25 09:24:32;;;;;;;20.67;10.85;;;;;;;;;;4973948;28;20046;-69
2022/10/25 09:27:11;;;;;;;18.23;11.30;;;;;;;;;;4987788;28;20050;-68
2022/10/25 09:29:38;;;;;;;22.30;11.02;;;;;;;;;;4991721;28;20342;-68
2022/10/25 09:32:14;;;;;;;20.25;10.65;;;;;;;;;;4978348;28;20034;-69
2022/10/25 09:34:40;;;;;;;18.55;9.90;;;;;;;;;;4982090;28;20034;-69
2022/10/25 09:37:32;;;;;;;18.73;10.60;;;;;;;;;;4990696;28;20038;-69
2022/10/25 09:40:04;;;;;;;26.42;10.48;;;;;;;;;;4987190;28;20031;-68
2022/10/25 09:42:51;;;;;;;23.85;9.98;;;;;;;;;;4973458;28;20489;-68
2022/10/25 09:45:28;;;;;;;17.75;10.20;;;;;;;;;;4992426;28;20026;-68
2022/10/25 09:47:54;;;;;;;24.58;10.02;;;;;;;;;;4985606;28;20114;-68
2022/10/25 09:50:26;;;;;;;24.45;12.13;;;;;;;;;;4990204;28;20106;-68
2022/10/25 09:53:07;;;;;;;22.30;11.13;;;;;;;;;;4972341;28;20027;-68
2022/10/25 09:55:36;;;;;;;20.33;11.25;;;;;;;;;;4982797;28;20117;-68
2022/10/25 09:58:02;;;;;;;25.50;11.35;;;;;;;;;;4975870;28;20050;-68
2022/10/25 10:00:28;;;;;;;28.02;12.13;;;;;;;;;;4968097;28;20134;-69
2022/10/25 10:02:55;;;;;;;20.48;10.13;;;;;;;;;;4973136;28;20077;-68
2022/10/25 10:05:21;;;;;;;22.00;10.88;;;;;;;;;;4988175;28;20034;-68
2022/10/25 10:07:48;;;;;;;29.17;11.50;;;;;;;;;;4970984;28;20038;-69
2022/10/25 10:10:17;;;;;;;24.17;10.75;;;;;;;;;;4989274;28;20030;-69
2022/10/25 10:12:43;;;;;;;23.33;11.48;;;;;;;;;;4987682;28;20030;-68
2022/10/25 10:15:20;;;;;;;29.42;11.02;;;;;;;;;;4962984;28;20038;-69
2022/10/25 10:17:46;;;;;;;24.85;10.50;;;;;;;;;;4982223;28;20034;-68
2022/10/25 10:20:13;;;;;;;18.25;10.50;;;;;;;;;;4989544;28;20026;-68
2022/10/25 10:22:50;;;;;;;20.25;10.07;;;;;;;;;;4989749;28;20022;-68
2022/10/25 10:25:18;;;;;;;22.15;10.70;;;;;;;;;;4985272;28;20049;-71
2022/10/25 10:27:45;;;;;;;24.10;11.35;;;;;;;;;;4986660;28;20540;-68
2022/10/25 10:30:19;;;;;;;18.58;10.70;;;;;;;;;;4980592;28;20109;-70
2022/10/25 10:32:45;;;;;;;20.00;9.98;;;;;;;;;;4979176;28;20035;-68
2022/10/25 10:35:29;;;;;;;22.58;11.52;;;;;;;;;;4983854;28;20145;-68
2022/10/25 10:38:13;;;;;;;22.35;10.68;;;;;;;;;;4981763;28;20032;-70
2022/10/25 10:40:39;;;;;;;21.95;10.90;;;;;;;;;;4990069;28;20078;-70
2022/10/25 10:43:27;;;;;;;27.20;11.52;;;;;;;;;;4986759;28;20039;-70
2022/10/25 10:45:55;;;;;;;18.67;10.43;;;;;;;;;;4982889;28;20052;-70
2022/10/25 10:48:22;;;;;;;18.25;9.82;;;;;;;;;;4981554;28;20030;-70
2022/10/25 10:50:50;;;;;;;22.58;10.15;;;;;;;;;;4982078;28;20084;-68
2022/10/25 10:53:24;;;;;;;23.95;9.80;;;;;;;;;;4985601;28;20118;-69
2022/10/25 10:55:54;;;;;;;22.52;10.52;;;;;;;;;;4985099;28;20421;-68
2022/10/25 10:58:26;;;;;;;18.60;9.75;;;;;;;;;;4986091;28;20254;-69
2022/10/25 11:00:53;;;;;;;21.55;10.48;;;;;;;;;;4980789;28;20019;-69
2022/10/25 11:03:37;;;;;;;15.43;8.23;;;;;;;;;;4981505;28;20208;-69
2022/10/25 11:06:05;;;;;;;22.52;9.63;;;;;;;;;;4979079;28;20398;-70
2022/10/25 11:08:31;;;;;;;20.92;10.25;;;;;;;;;;4982581;28;20023;-69
2022/10/25 11:11:14;;;;;;;24.08;9.88;;;;;;;;;;4985620;28;20042;-69
2022/10/25 11:13:41;;;;;;;17.92;9.18;;;;;;;;;;4985172;28;20085;-69
2022/10/25 11:16:26;;;;;;;19.27;9.07;;;;;;;;;;4984788;28;20038;-69
2022/10/25 11:18:57;;;;;;;20.92;8.82;;;;;;;;;;4982108;28;20028;-69
2022/10/25 11:21:30;;;;;;;17.33;7.20;;;;;;;;;;4980173;28;20023;-69
2022/10/25 11:24:02;;;;;;;17.52;6.97;;;;;;;;;;4970836;28;20057;-70
2022/10/25 11:26:39;;;;;;;19.38;6.95;;;;;;;;;;4983661;28;20030;-69
2022/10/25 11:29:15;;;;;;;17.50;5.85;;;;;;;;;;4989089;28;20030;-70
2022/10/25 11:31:51;;;;;;;13.93;5.68;;;;;;;;;;4984555;28;20046;-70
2022/10/25 11:34:49;;;;;;;26.30;6.32;;;;;;;;;;4978582;28;20034;-70
2022/10/25 11:37:41;;;;;;;18.40;5.10;;;;;;;;;;4951181;28;20042;-71
2022/10/25 11:40:22;;;;;;;15.93;4.50;;;;;;;;;;4982921;28;20509;-70
2022/10/25 11:43:03;;;;;;;12.38;4.55;;;;;;;;;;4985019;28;20512;-70
2022/10/25 11:45:38;;;;;;;16.38;4.13;;;;;;;;;;4976897;28;20030;-70
2022/10/25 11:48:23;;;;;;;15.05;3.70;;;;;;;;;;4983443;28;20119;-70
2022/10/25 11:50:57;;;;;;;18.17;3.95;;;;;;;;;;4983087;28;20034;-70
2022/10/25 11:53:41;;;;;;;18.48;3.45;;;;;;;;;;4981867;28;20110;-69
2022/10/25 11:56:20;;;;;;;14.50;3.65;;;;;;;;;;4983658;28;20034;-71
2022/10/25 11:59:00;;;;;;;13.90;4.18;;;;;;;;;;4981693;28;20046;-71
2022/10/25 12:01:45;;;;;;;13.73;3.60;;;;;;;;;;4978305;28;20068;-71
2022/10/25 12:04:30;;;;;;;11.05;4.03;;;;;;;;;;4984392;28;20026;-70
2022/10/25 12:07:04;;;;;;;16.17;4.50;;;;;;;;;;4980484;28;20057;-71
2022/10/25 12:09:49;;;;;;;16.23;4.60;;;;;;;;;;4983682;28;20101;-71
2022/10/25 12:12:18;;;;;;;15.70;4.93;;;;;;;;;;4985299;28;20022;-70
2022/10/25 12:14:45;;;;;;;16.95;4.65;;;;;;;;;;4984807;28;20050;-69
2022/10/25 12:17:32;;;;;;;16.10;5.05;;;;;;;;;;4983891;28;20486;-70
2022/10/25 12:20:00;;;;;;;18.27;6.30;;;;;;;;;;4963418;28;20026;-69
2022/10/25 12:22:28;;;;;;;19.90;6.95;;;;;;;;;;4984017;28;20547;-69
2022/10/25 12:24:57;;;;;;;15.57;6.55;;;;;;;;;;4981183;28;20084;-70
2022/10/25 12:27:24;;;;;;;21.27;7.43;;;;;;;;;;4980783;28;20519;-70
2022/10/25 12:29:54;;;;;;;19.38;7.90;;;;;;;;;;4951809;28;20037;-69
2022/10/25 12:32:22;;;;;;;20.65;6.60;;;;;;;;;;4983227;28;20034;-69
2022/10/25 12:34:50;;;;;;;18.52;6.25;;;;;;;;;;4981077;28;20031;-70
2022/10/25 12:37:22;;;;;;;23.20;6.32;;;;;;;;;;4983912;28;20027;-70
2022/10/25 12:39:48;;;;;;;15.43;5.50;;;;;;;;;;4985877;28;20338;-70
2022/10/25 12:42:27;;;;;;;16.38;5.65;;;;;;;;;;4978828;28;20096;-70
2022/10/25 12:44:59;;;;;;;22.55;5.60;;;;;;;;;;4980943;28;20389;-70
2022/10/25 12:47:43;;;;;;;14.73;5.03;;;;;;;;;;4987831;28;20618;-70
2022/10/25 12:50:19;;;;;;;23.85;6.68;;;;;;;;;;4973507;28;20031;-71
2022/10/25 12:53:12;;;;;;;32.42;6.10;;;;;;;;;;4986075;28;20026;-70
2022/10/25 12:55:42;;;;;;;20.55;5.55;;;;;;;;;;4989518;28;20444;-70
2022/10/25 12:58:08;;;;;;;16.35;4.65;;;;;;;;;;4988511;28;20045;-70
2022/10/25 13:00:41;;;;;;;23.83;5.18;;;;;;;;;;4992325;28;21170;-70
2022/10/25 13:03:33;;;;;;;23.73;5.05;;;;;;;;;;4992789;28;20488;-70
2022/10/25 13:06:21;;;;;;;24.75;5.30;;;;;;;;;;4991598;28;20485;-70
2022/10/25 13:08:48;;;;;;;13.80;4.53;;;;;;;;;;4967215;28;20493;-70
2022/10/25 13:11:14;;;;;;;12.15;4.18;;;;;;;;;;4992391;28;20138;-70
2022/10/25 13:13:47;;;;;;;19.73;4.90;;;;;;;;;;4975524;28;20477;-70
2022/10/25 13:16:22;;;;;;;15.48;4.00;;;;;;;;;;4987092;28;20030;-70
2022/10/25 13:19:08;;;;;;;16.50;4.35;;;;;;;;;;4966628;28;20030;-70
2022/10/25 13:21:52;;;;;;;15.57;4.63;;;;;;;;;;4967683;28;20027;-70
2022/10/25 13:24:37;;;;;;;18.70;5.45;;;;;;;;;;4973979;28;20526;-70
2022/10/25 13:27:12;;;;;;;17.80;5.90;;;;;;;;;;4989577;28;20501;-70
2022/10/25 13:29:58;;;;;;;16.65;5.80;;;;;;;;;;4991932;28;20054;-70
2022/10/25 13:32:24;;;;;;;14.50;5.68;;;;;;;;;;4989421;28;20080;-70
2022/10/25 13:34:50;;;;;;;19.38;7.10;;;;;;;;;;4971046;28;20114;-70
2022/10/25 13:37:32;;;;;;;19.02;5.97;;;;;;;;;;4991120;28;20041;-70
2022/10/25 13:39:59;;;;;;;17.10;5.38;;;;;;;;;;4978222;28;20478;-70
2022/10/25 13:42:31;;;;;;;14.23;5.03;;;;;;;;;;4989397;28;20516;-70
2022/10/25 13:44:57;;;;;;;18.35;5.32;;;;;;;;;;4970962;28;20801;-70
2022/10/25 13:47:42;;;;;;;16.05;5.15;;;;;;;;;;4983048;28;20073;-70
2022/10/25 13:50:12;;;;;;;14.15;5.13;;;;;;;;;;4991429;28;20030;-71
2022/10/25 13:52:42;;;;;;;10.43;5.95;;;;;;;;;;4991727;28;20560;-70
2022/10/25 13:55:14;;;;;;;21.27;6.15;;;;;;;;;;4992343;28;20037;-71
2022/10/25 13:57:48;;;;;;;16.38;4.57;;;;;;;;;;4992413;28;20042;-70
2022/10/25 14:00:18;;;;;;;12.45;3.72;;;;;;;;;;4992387;28;20030;-68
2022/10/25 14:03:02;;;;;;;10.85;4.32;;;;;;;;;;4985845;28;20460;-71
2022/10/25 14:05:47;;;;;;;10.70;3.65;;;;;;;;;;4991143;28;20114;-71
2022/10/25 14:08:18;;;;;;;12.77;3.50;;;;;;;;;;4988181;28;20069;-69
2022/10/25 14:10:46;;;;;;;14.02;4.18;;;;;;;;;;4992168;28;20022;-69
2022/10/25 14:13:20;;;;;;;14.48;3.97;;;;;;;;;;4978049;28;20488;-70
2022/10/25 14:15:49;;;;;;;11.30;3.60;;;;;;;;;;4985915;28;20045;-69
2022/10/25 14:18:18;;;;;;;11.73;3.35;;;;;;;;;;4982329;28;20022;-68
2022/10/25 14:20:45;;;;;;;8.90;2.88;;;;;;;;;;4967861;28;20058;-69
2022/10/25 14:23:15;;;;;;;10.65;3.03;;;;;;;;;;4986070;28;20080;-69
2022/10/25 14:25:42;;;;;;;11.98;3.30;;;;;;;;;;4988340;28;20089;-69
2022/10/25 14:28:16;;;;;;;14.75;3.65;;;;;;;;;;4985245;28;20037;-69
2022/10/25 14:30:42;;;;;;;10.70;3.53;;;;;;;;;;4985164;28;20023;-70
2022/10/25 14:33:20;;;;;;;10.38;3.83;;;;;;;;;;4985572;28;20085;-69
2022/10/25 14:35:47;;;;;;;15.15;4.10;;;;;;;;;;4986725;28;20066;-70
2022/10/25 14:38:18;;;;;;;16.38;4.47;;;;;;;;;;4986875;28;20018;-69